Time;durP1;ratioP1;P1;durP2;ratioP2;P2;SDS_P1;SDS_P2;PMS_P1;PMS_P2;Temp;Humidity;BMP_temperature;BMP_pressure;BME280_temperature;BME280_humidity;BME280_pressure;Samples;Min_cycle;Max_cycle;Signal;HPM_P1;HPM_P2
2021/07/20 00:00:18;;;;;;;20.63;18.60;;;17.90;99.90;;;;;;5016007;28;20693;-78
2021/07/20 00:02:47;;;;;;;20.80;18.70;;;17.90;99.90;;;;;;5015883;28;20815;-77
2021/07/20 00:05:20;;;;;;;20.90;18.70;;;17.90;99.90;;;;;;5033656;28;20202;-76
2021/07/20 00:07:48;;;;;;;21.23;19.07;;;17.80;99.90;;;;;;5015732;28;20681;-77
2021/07/20 00:10:17;;;;;;;20.73;18.63;;;17.70;99.90;;;;;;5023917;28;20218;-78
2021/07/20 00:12:44;;;;;;;21.50;19.20;;;17.60;99.90;;;;;;5023785;28;20201;-77
2021/07/20 00:15:13;;;;;;;21.97;19.67;;;17.60;99.90;;;;;;5033255;28;20201;-79
2021/07/20 00:17:43;;;;;;;21.27;19.13;;;17.60;99.90;;;;;;5033050;28;20208;-77
2021/07/20 00:20:12;;;;;;;20.13;18.03;;;17.60;99.90;;;;;;5033048;28;20232;-77
2021/07/20 00:22:39;;;;;;;20.40;18.20;;;17.50;99.90;;;;;;5033369;28;20193;-77
2021/07/20 00:25:07;;;;;;;21.80;19.63;;;17.50;99.90;;;;;;5015619;28;20231;-77
2021/07/20 00:27:34;;;;;;;22.80;19.53;;;17.40;99.90;;;;;;5015127;28;20243;-77
2021/07/20 00:30:01;;;;;;;22.33;20.03;;;17.40;99.90;;;;;;5015254;28;20256;-77
2021/07/20 00:32:28;;;;;;;23.30;20.23;;;17.50;99.90;;;;;;5015372;28;20228;-78
2021/07/20 00:34:56;;;;;;;22.27;20.00;;;17.40;99.90;;;;;;5015014;28;20216;-77
2021/07/20 00:37:23;;;;;;;21.63;19.43;;;17.40;99.90;;;;;;5032688;28;20187;-78
2021/07/20 00:39:50;;;;;;;22.03;19.67;;;17.40;99.90;;;;;;5032656;28;20260;-78
2021/07/20 00:42:17;;;;;;;23.17;20.07;;;17.40;99.90;;;;;;5015074;28;20211;-77
2021/07/20 00:44:44;;;;;;;21.70;19.47;;;17.40;99.90;;;;;;5015251;28;20190;-77
2021/07/20 00:47:11;;;;;;;22.27;19.87;;;17.50;99.90;;;;;;5014819;28;20205;-77
2021/07/20 00:49:38;;;;;;;22.47;20.10;;;17.40;99.90;;;;;;5032658;28;20305;-78
2021/07/20 00:52:08;;;;;;;21.87;19.67;;;17.40;99.90;;;;;;5014746;28;20212;-78
2021/07/20 00:54:36;;;;;;;22.03;19.63;;;17.40;99.90;;;;;;5014831;28;20201;-77
2021/07/20 00:57:04;;;;;;;24.43;20.33;;;17.40;99.90;;;;;;5014451;28;20607;-78
2021/07/20 00:59:31;;;;;;;24.70;20.43;;;17.40;99.90;;;;;;5014693;28;20229;-78
2021/07/20 01:01:58;;;;;;;22.37;19.77;;;17.40;99.90;;;;;;5013790;28;20231;-78
2021/07/20 01:04:25;;;;;;;22.57;20.17;;;17.40;99.90;;;;;;5014816;28;20197;-77
2021/07/20 01:06:52;;;;;;;22.30;19.97;;;17.40;99.90;;;;;;5014358;28;20660;-77
2021/07/20 01:09:22;;;;;;;22.77;20.30;;;17.50;99.90;;;;;;5026051;28;20305;-77
2021/07/20 01:11:50;;;;;;;24.27;21.13;;;17.50;99.90;;;;;;5014623;28;20192;-79
2021/07/20 01:14:17;;;;;;;23.40;20.90;;;17.50;99.90;;;;;;5014708;28;20195;-77
2021/07/20 01:16:48;;;;;;;21.00;18.80;;;17.50;99.90;;;;;;5032009;28;20201;-79
2021/07/20 01:19:17;;;;;;;22.50;19.83;;;17.50;99.90;;;;;;5014283;28;20248;-77
2021/07/20 01:21:47;;;;;;;23.13;20.67;;;17.40;99.90;;;;;;5014792;28;20257;-79
2021/07/20 01:24:20;;;;;;;24.57;20.60;;;17.40;99.90;;;;;;5009856;28;20191;-77
2021/07/20 01:26:49;;;;;;;23.13;20.70;;;17.30;99.90;;;;;;5015962;28;20200;-78
2021/07/20 01:29:18;;;;;;;23.40;20.53;;;17.30;99.90;;;;;;5031998;28;20295;-77
2021/07/20 01:31:47;;;;;;;25.40;21.23;;;17.30;99.90;;;;;;5014184;28;20647;-77
2021/07/20 01:34:19;;;;;;;21.40;18.77;;;17.30;99.90;;;;;;5014485;28;20197;-78
2021/07/20 01:36:49;;;;;;;23.40;20.97;;;17.20;99.90;;;;;;5014609;28;20293;-77
2021/07/20 01:39:20;;;;;;;21.50;19.30;;;17.10;99.90;;;;;;5014220;28;20215;-77
2021/07/20 01:41:48;;;;;;;24.33;19.17;;;17.10;99.90;;;;;;5014347;28;20241;-78
2021/07/20 01:44:16;;;;;;;22.80;20.43;;;17.00;99.90;;;;;;5014228;28;20286;-78
2021/07/20 01:46:49;;;;;;;24.93;21.40;;;17.00;99.90;;;;;;5014374;28;20206;-78
2021/07/20 01:49:18;;;;;;;22.67;19.80;;;17.00;99.90;;;;;;5010843;28;20227;-77
2021/07/20 01:51:51;;;;;;;24.57;21.70;;;17.00;99.90;;;;;;5013733;28;20211;-77
2021/07/20 01:54:21;;;;;;;22.17;19.87;;;17.00;99.90;;;;;;5014140;28;20196;-78
2021/07/20 01:56:49;;;;;;;21.60;19.40;;;17.00;99.90;;;;;;5014152;28;20196;-77
2021/07/20 01:59:18;;;;;;;22.83;20.43;;;17.00;99.90;;;;;;5014409;28;20619;-77
2021/07/20 02:02:25;;;;;;;23.67;20.50;;;17.00;99.90;;;;;;5016123;28;20215;-77
2021/07/20 02:10:37;;;;;;;24.27;21.37;;;16.90;99.90;;;;;;5013948;28;20212;-76
2021/07/20 02:13:15;;;;;;;23.00;20.67;;;16.80;99.90;;;;;;5020830;28;20685;-76
2021/07/20 02:16:01;;;;;;;24.30;21.07;;;16.70;99.90;;;;;;5018289;28;20274;-78
2021/07/20 02:18:30;;;;;;;21.20;19.07;;;16.70;99.90;;;;;;5017560;28;20203;-77
2021/07/20 02:21:09;;;;;;;23.70;21.20;;;16.70;99.90;;;;;;5020241;28;20212;-76
2021/07/20 02:23:45;;;;;;;20.10;17.90;;;16.60;99.90;;;;;;5017764;28;20930;-77
2021/07/20 02:26:14;;;;;;;21.47;19.13;;;16.60;99.90;;;;;;5035710;28;20198;-77
2021/07/20 02:28:44;;;;;;;24.83;19.07;;;16.50;99.90;;;;;;5017391;28;20199;-77
2021/07/20 02:31:13;;;;;;;22.27;18.90;;;16.50;99.90;;;;;;5035578;28;20186;-77
2021/07/20 02:33:43;;;;;;;22.97;19.30;;;16.50;99.90;;;;;;5018995;28;20562;-77
2021/07/20 02:36:12;;;;;;;21.03;18.80;;;16.50;99.90;;;;;;5018406;28;20210;-77
2021/07/20 02:38:40;;;;;;;22.27;19.37;;;16.50;99.90;;;;;;5018358;28;20223;-77
2021/07/20 02:41:11;;;;;;;22.00;19.17;;;16.50;99.90;;;;;;5017683;28;20600;-77
2021/07/20 02:43:43;;;;;;;20.93;17.80;;;16.50;99.90;;;;;;5021788;28;20197;-79
2021/07/20 02:46:11;;;;;;;21.83;18.37;;;16.40;99.90;;;;;;5041685;28;20250;-79
2021/07/20 02:48:43;;;;;;;21.37;17.90;;;16.30;99.90;;;;;;5026052;28;20209;-79
2021/07/20 02:51:17;;;;;;;24.43;17.77;;;16.30;99.90;;;;;;5043029;28;20199;-79
2021/07/20 02:53:49;;;;;;;20.93;18.93;;;16.20;99.90;;;;;;5042259;28;20252;-81
2021/07/20 02:56:18;;;;;;;20.27;18.17;;;16.10;99.90;;;;;;5043023;28;20265;-80
2021/07/20 02:58:52;;;;;;;19.00;16.97;;;16.10;99.90;;;;;;5022737;28;20669;-81
2021/07/20 03:01:37;;;;;;;18.03;16.13;;;16.00;99.90;;;;;;5026707;28;20216;-80
2021/07/20 03:04:04;;;;;;;24.10;21.70;;;16.00;99.90;;;;;;5023262;28;20195;-80
2021/07/20 03:06:32;;;;;;;20.67;18.37;;;15.90;99.90;;;;;;5021152;28;20250;-79
2021/07/20 03:09:01;;;;;;;21.50;19.33;;;15.90;99.90;;;;;;5023814;28;20220;-79
2021/07/20 03:11:44;;;;;;;20.40;17.70;;;15.90;99.90;;;;;;5023933;28;20290;-79
2021/07/20 03:14:19;;;;;;;22.20;20.17;;;15.80;99.90;;;;;;5024376;28;20194;-80
2021/07/20 03:16:56;;;;;;;23.13;20.67;;;15.80;99.90;;;;;;5021882;28;20216;-78
2021/07/20 03:19:27;;;;;;;22.00;19.80;;;15.70;99.90;;;;;;5018798;28;20205;-78
2021/07/20 03:21:56;;;;;;;22.23;20.07;;;15.70;99.90;;;;;;5017358;28;20283;-78
2021/07/20 03:24:26;;;;;;;22.43;20.30;;;15.60;99.90;;;;;;5011708;28;20198;-79
2021/07/20 03:26:58;;;;;;;21.40;19.30;;;15.60;99.90;;;;;;5007671;28;20199;-78
2021/07/20 03:29:27;;;;;;;23.93;21.67;;;15.60;99.90;;;;;;5017297;28;20212;-78
2021/07/20 03:31:55;;;;;;;24.30;22.10;;;15.50;99.90;;;;;;5018501;28;20678;-79
2021/07/20 03:34:24;;;;;;;24.00;21.50;;;15.50;99.90;;;;;;5016441;28;20200;-78
2021/07/20 03:36:54;;;;;;;24.87;22.47;;;15.50;99.90;;;;;;5021681;28;20192;-78
2021/07/20 03:39:24;;;;;;;22.87;20.67;;;15.50;99.90;;;;;;5017785;28;20755;-78
2021/07/20 03:41:52;;;;;;;24.33;21.20;;;15.40;99.90;;;;;;5034992;28;20688;-78
2021/07/20 03:44:19;;;;;;;23.87;21.47;;;15.40;99.90;;;;;;5017401;28;20196;-78
2021/07/20 03:46:48;;;;;;;24.73;21.27;;;15.30;99.90;;;;;;5017156;28;20669;-79
2021/07/20 03:49:16;;;;;;;23.30;21.10;;;15.30;99.90;;;;;;5016739;28;20235;-78
2021/07/20 03:51:49;;;;;;;34.47;22.77;;;15.30;99.90;;;;;;5018123;28;20206;-78
2021/07/20 03:54:17;;;;;;;24.20;21.63;;;15.30;99.90;;;;;;5028616;28;20190;-78
2021/07/20 03:56:44;;;;;;;30.63;22.50;;;15.30;99.90;;;;;;5016890;28;20200;-78
2021/07/20 03:59:13;;;;;;;31.23;23.77;;;15.30;99.90;;;;;;5018004;28;20311;-78
2021/07/20 04:02:11;;;;;;;27.43;24.40;;;15.20;99.90;;;;;;5031191;28;20214;-78
2021/07/20 04:04:41;;;;;;;24.90;22.20;;;15.30;99.90;;;;;;5021136;28;20200;-78
2021/07/20 04:07:14;;;;;;;24.20;21.73;;;15.30;99.90;;;;;;5017264;28;20192;-80
2021/07/20 04:09:58;;;;;;;23.30;20.90;;;15.30;99.90;;;;;;5009489;28;20656;-78
2021/07/20 04:12:48;;;;;;;24.53;21.87;;;15.30;99.90;;;;;;5034174;28;20347;-78
2021/07/20 04:15:44;;;;;;;20.73;18.83;;;15.40;99.90;;;;;;5016855;28;20672;-78
2021/07/20 04:18:18;;;;;;;23.80;21.40;;;15.40;99.90;;;;;;5034756;28;20187;-77
2021/07/20 04:20:47;;;;;;;23.80;21.50;;;15.40;99.90;;;;;;5016430;28;20719;-77
2021/07/20 04:23:15;;;;;;;22.37;20.17;;;15.50;99.90;;;;;;5016081;28;20212;-78
2021/07/20 04:25:51;;;;;;;21.50;19.60;;;15.60;99.90;;;;;;5034169;28;20184;-77
2021/07/20 04:28:20;;;;;;;22.87;20.67;;;15.60;99.90;;;;;;5016308;28;20193;-78
2021/07/20 04:30:49;;;;;;;23.07;21.07;;;15.70;99.90;;;;;;5017244;28;20235;-77
2021/07/20 04:33:25;;;;;;;21.63;19.43;;;15.70;99.90;;;;;;5016328;28;20210;-78
2021/07/20 04:36:16;;;;;;;20.80;18.90;;;15.80;99.90;;;;;;5026186;28;20275;-79
2021/07/20 04:38:44;;;;;;;21.90;19.90;;;15.90;99.90;;;;;;5015796;28;20214;-78
2021/07/20 04:41:15;;;;;;;22.00;19.83;;;16.00;99.90;;;;;;5016147;28;20227;-79
2021/07/20 04:43:45;;;;;;;22.43;20.17;;;16.10;99.90;;;;;;5015967;28;20683;-78
2021/07/20 04:46:13;;;;;;;20.43;18.13;;;16.20;99.90;;;;;;5016383;28;20198;-78
2021/07/20 04:48:41;;;;;;;20.83;18.70;;;16.20;99.90;;;;;;5015793;28;20197;-77
2021/07/20 04:51:14;;;;;;;20.30;18.10;;;16.30;99.90;;;;;;5044035;23;20580;-78
2021/07/20 04:53:43;;;;;;;23.53;20.37;;;16.40;99.90;;;;;;5025776;28;20201;-79
2021/07/20 04:56:12;;;;;;;22.17;19.77;;;16.50;99.90;;;;;;5022448;28;20670;-78
2021/07/20 04:58:43;;;;;;;21.93;19.63;;;16.60;99.90;;;;;;5026565;28;20211;-79
2021/07/20 05:01:12;;;;;;;23.03;20.67;;;16.70;99.90;;;;;;5021527;28;20219;-78
2021/07/20 05:03:42;;;;;;;24.43;21.80;;;16.80;99.90;;;;;;5040664;28;20219;-77
2021/07/20 05:06:12;;;;;;;24.10;21.80;;;16.90;99.90;;;;;;5024503;28;20190;-78
2021/07/20 05:08:49;;;;;;;23.83;21.53;;;17.00;99.90;;;;;;5025596;28;20198;-78
2021/07/20 05:11:20;;;;;;;23.90;21.50;;;17.10;99.90;;;;;;5020998;28;20297;-76
2021/07/20 05:13:49;;;;;;;22.93;20.77;;;17.20;99.90;;;;;;5042292;28;20225;-77
2021/07/20 05:16:20;;;;;;;23.57;20.77;;;17.40;99.90;;;;;;5026779;28;20285;-78
2021/07/20 05:19:04;;;;;;;23.10;20.90;;;17.50;99.90;;;;;;5040758;28;20223;-78
2021/07/20 05:21:47;;;;;;;22.10;20.00;;;17.60;99.90;;;;;;5036904;28;20213;-77
2021/07/20 05:24:19;;;;;;;22.50;20.20;;;17.70;99.90;;;;;;5021681;28;20302;-78
2021/07/20 05:27:02;;;;;;;21.30;19.20;;;17.80;99.90;;;;;;5020063;28;20264;-77
2021/07/20 05:29:31;;;;;;;21.10;18.07;;;18.00;99.90;;;;;;5035872;28;20203;-78
2021/07/20 05:32:11;;;;;;;19.20;17.17;;;18.10;99.90;;;;;;5025096;28;20206;-77
2021/07/20 05:34:39;;;;;;;21.07;18.87;;;18.20;99.90;;;;;;5043643;28;20219;-78
2021/07/20 05:37:07;;;;;;;21.00;18.80;;;18.20;99.90;;;;;;5043611;28;20198;-77
2021/07/20 05:39:46;;;;;;;20.00;18.00;;;18.40;99.90;;;;;;5044881;28;20247;-77
2021/07/20 05:42:18;;;;;;;20.70;17.90;;;18.60;99.90;;;;;;5028560;28;20713;-77
2021/07/20 05:44:47;;;;;;;19.47;17.53;;;18.70;99.90;;;;;;5026708;28;20740;-77
2021/07/20 05:47:15;;;;;;;19.43;17.53;;;18.90;99.90;;;;;;5041475;28;20188;-77
2021/07/20 05:49:44;;;;;;;16.87;14.83;;;19.00;99.90;;;;;;5027372;28;20225;-77
2021/07/20 05:52:14;;;;;;;20.70;18.30;;;19.20;99.90;;;;;;5032275;28;20242;-77
2021/07/20 05:54:47;;;;;;;20.83;18.70;;;19.50;99.90;;;;;;5037183;28;20200;-77
2021/07/20 05:57:25;;;;;;;16.93;14.13;;;19.90;99.90;;;;;;5025191;28;20194;-77
2021/07/20 06:00:10;;;;;;;20.80;18.70;;;20.40;99.90;;;;;;5028493;28;20210;-77
2021/07/20 06:02:47;;;;;;;20.80;18.70;;;20.70;99.90;;;;;;5049710;28;20221;-78
2021/07/20 06:05:27;;;;;;;20.43;18.23;;;20.90;99.90;;;;;;5029684;28;20201;-78
2021/07/20 06:07:54;;;;;;;19.80;17.97;;;21.10;99.90;;;;;;5042696;28;20187;-77
2021/07/20 06:10:22;;;;;;;19.63;17.63;;;21.40;99.90;;;;;;5055279;28;20249;-77
2021/07/20 06:12:50;;;;;;;21.77;19.57;;;21.50;99.90;;;;;;5046632;28;20191;-77
2021/07/20 06:15:18;;;;;;;21.90;19.50;;;21.20;99.90;;;;;;5047485;28;20283;-77
2021/07/20 06:17:45;;;;;;;18.43;16.30;;;21.50;99.90;;;;;;5054142;28;20194;-77
2021/07/20 06:20:13;;;;;;;20.10;17.97;;;21.70;99.90;;;;;;5046782;28;20242;-78
2021/07/20 06:22:49;;;;;;;20.83;18.63;;;21.90;99.90;;;;;;5047799;28;20609;-78
2021/07/20 06:25:17;;;;;;;18.97;17.00;;;21.60;99.90;;;;;;5028222;28;20195;-77
2021/07/20 06:27:47;;;;;;;18.53;16.73;;;21.50;99.90;;;;;;5043031;28;20219;-78
2021/07/20 06:30:16;;;;;;;19.83;17.23;;;21.70;99.90;;;;;;5037338;28;20223;-77
2021/07/20 06:32:44;;;;;;;19.30;17.30;;;21.80;99.90;;;;;;5046277;28;20679;-78
2021/07/20 06:35:15;;;;;;;22.13;19.23;;;21.80;99.90;;;;;;5048429;28;20181;-78
2021/07/20 06:37:45;;;;;;;20.87;18.70;;;22.00;99.90;;;;;;5050591;28;20544;-78
2021/07/20 06:40:15;;;;;;;19.50;17.63;;;22.10;99.90;;;;;;5048489;28;20206;-77
2021/07/20 06:42:42;;;;;;;18.20;16.40;;;22.60;99.90;;;;;;5044442;28;20216;-78
2021/07/20 06:45:12;;;;;;;19.73;17.73;;;22.80;99.90;;;;;;5046022;28;20343;-77
2021/07/20 06:47:41;;;;;;;19.80;18.00;;;22.80;99.90;;;;;;5047931;28;20184;-77
2021/07/20 06:50:10;;;;;;;21.33;18.20;;;23.00;99.90;;;;;;5028927;28;20700;-78
2021/07/20 06:52:37;;;;;;;20.60;18.43;;;22.70;99.90;;;;;;5045425;28;20187;-77
2021/07/20 06:55:08;;;;;;;21.03;18.93;;;22.90;99.90;;;;;;5050083;28;20195;-78
2021/07/20 06:57:36;;;;;;;21.50;19.50;;;22.90;99.90;;;;;;5050451;28;20191;-77
2021/07/20 07:00:08;;;;;;;19.47;17.67;;;22.90;99.90;;;;;;5047106;28;20239;-77
2021/07/20 07:02:38;;;;;;;21.00;18.90;;;23.00;99.90;;;;;;5046470;28;20212;-77
2021/07/20 07:05:09;;;;;;;18.90;17.03;;;23.10;99.90;;;;;;5055445;28;20190;-78
2021/07/20 07:07:37;;;;;;;18.63;16.67;;;23.40;99.90;;;;;;5033343;28;20202;-77
2021/07/20 07:10:09;;;;;;;17.57;15.77;;;23.30;99.90;;;;;;5050422;28;20211;-77
2021/07/20 07:12:38;;;;;;;20.60;18.40;;;23.40;99.90;;;;;;5034729;28;20200;-78
2021/07/20 07:15:06;;;;;;;21.00;18.93;;;23.40;99.90;;;;;;5043698;28;20191;-79
2021/07/20 07:17:34;;;;;;;22.90;18.63;;;23.60;99.90;;;;;;5051638;28;20541;-77
2021/07/20 07:20:02;;;;;;;20.43;18.57;;;23.70;99.90;;;;;;5050727;28;20236;-77
2021/07/20 07:22:29;;;;;;;20.43;18.33;;;23.70;99.90;;;;;;5053711;28;20211;-77
2021/07/20 07:24:57;;;;;;;19.43;17.43;;;23.70;99.90;;;;;;5033285;28;20193;-78
2021/07/20 07:27:26;;;;;;;19.97;18.07;;;24.10;99.90;;;;;;5049789;28;20191;-77
2021/07/20 07:29:54;;;;;;;18.93;17.13;;;24.30;99.90;;;;;;5052510;28;20229;-78
2021/07/20 07:32:22;;;;;;;18.97;17.07;;;24.40;99.90;;;;;;5050779;28;20183;-77
2021/07/20 07:34:49;;;;;;;18.70;16.90;;;24.40;99.90;;;;;;5036023;28;20203;-77
2021/07/20 07:37:19;;;;;;;19.03;17.23;;;24.60;99.90;;;;;;5052799;28;20263;-78
2021/07/20 07:39:47;;;;;;;16.93;15.20;;;24.80;99.90;;;;;;5052105;28;20257;-77
2021/07/20 07:42:15;;;;;;;18.43;16.60;;;24.90;99.90;;;;;;5048627;28;20210;-77
2021/07/20 07:44:46;;;;;;;20.83;18.83;;;24.60;99.90;;;;;;5045216;28;20649;-77
2021/07/20 07:47:14;;;;;;;19.13;17.33;;;24.20;99.90;;;;;;5053410;28;20528;-78
2021/07/20 07:49:43;;;;;;;19.43;17.43;;;24.30;99.90;;;;;;5047848;28;20235;-77
2021/07/20 07:52:11;;;;;;;18.97;17.20;;;24.40;99.90;;;;;;5052102;28;20532;-77
2021/07/20 07:54:39;;;;;;;18.33;16.53;;;24.50;99.90;;;;;;5050112;28;20191;-77
2021/07/20 07:57:06;;;;;;;19.63;17.63;;;24.70;99.90;;;;;;5045414;28;20593;-78
2021/07/20 07:59:34;;;;;;;18.23;16.43;;;24.90;99.90;;;;;;5034597;28;20206;-77
2021/07/20 08:02:04;;;;;;;20.00;17.90;;;25.20;99.90;;;;;;5029679;28;20237;-78
2021/07/20 08:04:33;;;;;;;18.70;17.00;;;25.10;99.90;;;;;;5027668;28;20219;-77
2021/07/20 08:07:02;;;;;;;17.77;16.00;;;24.90;99.90;;;;;;5050218;28;20196;-78
2021/07/20 08:09:30;;;;;;;17.47;15.90;;;24.80;99.90;;;;;;5050738;28;20192;-78
2021/07/20 08:12:00;;;;;;;18.00;16.30;;;24.60;99.90;;;;;;5041162;28;20196;-77
2021/07/20 08:14:27;;;;;;;18.17;16.37;;;24.50;99.90;;;;;;5050826;28;20191;-77
2021/07/20 08:17:02;;;;;;;17.53;16.00;;;25.10;99.90;;;;;;5033658;28;20204;-78
2021/07/20 08:19:32;;;;;;;17.63;16.10;;;25.50;99.90;;;;;;5037506;28;20190;-78
2021/07/20 08:22:01;;;;;;;18.67;16.87;;;25.70;99.90;;;;;;5040860;28;20187;-78
2021/07/20 08:24:30;;;;;;;18.07;16.33;;;26.00;99.90;;;;;;5031405;28;20262;-78
2021/07/20 08:27:01;;;;;;;16.67;14.97;;;26.00;99.90;;;;;;5043230;28;20211;-78
2021/07/20 08:29:33;;;;;;;17.37;15.63;;;26.00;99.90;;;;;;5033317;28;20199;-78
2021/07/20 08:32:07;;;;;;;18.03;16.43;;;26.10;99.90;;;;;;5044067;28;20195;-77
2021/07/20 08:34:36;;;;;;;18.13;16.43;;;26.20;99.90;;;;;;5047999;28;20192;-78
2021/07/20 08:37:03;;;;;;;18.23;16.47;;;26.20;99.90;;;;;;5052606;28;20192;-78
2021/07/20 08:39:32;;;;;;;18.90;17.07;;;26.40;99.90;;;;;;5052803;28;20652;-78
2021/07/20 08:42:13;;;;;;;18.40;16.70;;;26.20;99.90;;;;;;5040684;28;20195;-77
2021/07/20 08:45:04;;;;;;;18.67;16.77;;;26.20;99.90;;;;;;5046367;28;20683;-77
2021/07/20 08:47:50;;;;;;;17.77;16.03;;;26.40;99.90;;;;;;5046655;28;20192;-77
2021/07/20 08:50:25;;;;;;;12.67;10.10;;;26.20;99.90;;;;;;5045779;28;20254;-77
2021/07/20 08:53:04;;;;;;;13.27;10.20;;;26.20;99.90;;;;;;5055977;28;20198;-77
2021/07/20 08:55:35;;;;;;;13.07;9.90;;;26.30;99.90;;;;;;5047807;28;20278;-77
2021/07/20 08:58:05;;;;;;;15.70;14.03;;;26.60;99.90;;;;;;5050943;28;20183;-78
2021/07/20 09:00:37;;;;;;;17.53;15.63;;;26.50;99.90;;;;;;5049441;28;20218;-78
2021/07/20 09:03:13;;;;;;;18.10;14.80;;;26.40;99.90;;;;;;5043953;28;20668;-77
2021/07/20 09:05:48;;;;;;;16.30;14.70;;;26.50;99.90;;;;;;5033562;28;20196;-77
2021/07/20 09:08:21;;;;;;;15.67;14.07;;;26.70;99.90;;;;;;5031448;28;20569;-78
2021/07/20 09:10:53;;;;;;;17.10;15.23;;;26.50;99.90;;;;;;5051422;28;20253;-77
2021/07/20 09:13:27;;;;;;;16.47;14.73;;;26.40;99.90;;;;;;5050881;28;20196;-77
2021/07/20 09:15:59;;;;;;;17.13;15.60;;;26.10;99.90;;;;;;5051110;28;20200;-78
2021/07/20 09:18:31;;;;;;;17.73;16.07;;;25.90;99.90;;;;;;5049096;28;20206;-78
2021/07/20 09:21:01;;;;;;;16.90;15.03;;;25.80;99.90;;;;;;5047159;28;20208;-77
2021/07/20 09:23:32;;;;;;;16.30;14.80;;;26.00;99.90;;;;;;5050014;28;20219;-77
2021/07/20 09:26:05;;;;;;;17.70;15.93;;;26.40;99.90;;;;;;5039341;28;20254;-78
2021/07/20 09:28:40;;;;;;;18.43;15.80;;;26.70;99.90;;;;;;5036421;28;20203;-77
2021/07/20 09:31:13;;;;;;;16.40;14.60;;;27.20;99.90;;;;;;5054881;28;20239;-77
2021/07/20 09:33:50;;;;;;;16.43;14.80;;;26.90;99.90;;;;;;5043686;28;20200;-78
2021/07/20 09:36:25;;;;;;;17.70;16.07;;;26.70;99.90;;;;;;5055236;28;20190;-77
2021/07/20 09:39:08;;;;;;;16.10;14.70;;;26.80;99.90;;;;;;5053810;28;20202;-78
2021/07/20 09:41:43;;;;;;;16.77;15.17;;;26.90;99.90;;;;;;5044892;28;20261;-77
2021/07/20 09:44:20;;;;;;;13.33;11.33;;;27.20;99.90;;;;;;5053215;28;20215;-78
2021/07/20 09:47:01;;;;;;;18.07;16.17;;;27.30;99.90;;;;;;5054653;28;20192;-77
2021/07/20 09:49:45;;;;;;;18.97;17.00;;;27.50;99.90;;;;;;5053228;28;20195;-78
2021/07/20 09:52:44;;;;;;;18.43;16.67;;;27.30;99.90;;;;;;5037599;28;20210;-78
2021/07/20 09:55:22;;;;;;;18.37;16.67;;;27.50;99.90;;;;;;5052905;28;20192;-77
2021/07/20 09:57:53;;;;;;;16.33;14.83;;;27.40;99.90;;;;;;5052486;28;20195;-78
2021/07/20 10:00:22;;;;;;;16.90;15.20;;;27.00;99.90;;;;;;5052497;28;20204;-77
2021/07/20 10:03:02;;;;;;;17.70;16.00;;;27.20;99.90;;;;;;5051158;28;20199;-77
2021/07/20 10:05:38;;;;;;;16.50;14.87;;;27.30;99.90;;;;;;5045753;28;20226;-77
2021/07/20 10:08:18;;;;;;;15.73;14.37;;;27.20;99.90;;;;;;5040917;28;20269;-78
2021/07/20 10:10:52;;;;;;;16.13;14.60;;;27.00;99.90;;;;;;5026859;28;20222;-78
2021/07/20 10:13:26;;;;;;;17.47;15.73;;;27.00;99.90;;;;;;5041806;28;20181;-78
2021/07/20 10:16:05;;;;;;;17.07;15.23;;;26.90;99.90;;;;;;5037800;28;20187;-78
2021/07/20 10:18:38;;;;;;;18.13;16.23;;;27.00;99.90;;;;;;5042967;28;20286;-78
2021/07/20 10:21:09;;;;;;;17.53;15.83;;;26.90;99.90;;;;;;5042331;28;20215;-77
2021/07/20 10:23:43;;;;;;;16.37;14.83;;;27.10;99.90;;;;;;5021031;28;20234;-78
2021/07/20 10:26:16;;;;;;;16.67;14.97;;;27.00;99.90;;;;;;5037872;28;20196;-78
2021/07/20 10:28:49;;;;;;;18.33;16.43;;;27.00;99.90;;;;;;5040088;28;20234;-78
2021/07/20 10:31:22;;;;;;;17.80;16.20;;;27.30;99.90;;;;;;5043695;28;20212;-78
2021/07/20 10:33:55;;;;;;;17.50;15.73;;;27.60;99.90;;;;;;5048472;28;20203;-78
2021/07/20 10:36:27;;;;;;;21.60;17.37;;;26.80;99.90;;;;;;5030331;28;20198;-78
2021/07/20 10:39:00;;;;;;;16.87;15.27;;;26.10;99.90;;;;;;5031703;28;20266;-78
2021/07/20 10:41:45;;;;;;;16.57;15.13;;;26.00;99.90;;;;;;5048650;28;20222;-77
2021/07/20 10:44:19;;;;;;;17.37;15.73;;;26.20;99.90;;;;;;5039252;28;20226;-78
2021/07/20 10:46:49;;;;;;;14.87;13.23;;;25.70;99.90;;;;;;5033629;28;20206;-79
2021/07/20 10:49:23;;;;;;;16.63;14.47;;;25.90;99.90;;;;;;5050797;28;20191;-78
2021/07/20 10:52:02;;;;;;;14.73;12.77;;;26.00;99.90;;;;;;5065769;22;20239;-78
2021/07/20 10:54:34;;;;;;;14.20;12.70;;;26.20;99.90;;;;;;5035494;28;20197;-78
2021/07/20 10:57:03;;;;;;;14.17;12.47;;;26.20;99.90;;;;;;5017890;28;20196;-78
2021/07/20 10:59:48;;;;;;;15.30;13.70;;;26.40;99.90;;;;;;5025293;28;20206;-79
2021/07/20 11:02:30;;;;;;;15.20;13.30;;;26.70;99.90;;;;;;5016538;28;20200;-79
2021/07/20 11:05:00;;;;;;;15.47;13.97;;;26.70;99.90;;;;;;5015965;28;20307;-79
2021/07/20 11:07:33;;;;;;;14.90;13.40;;;26.90;99.90;;;;;;5007443;28;20278;-79
2021/07/20 11:10:06;;;;;;;15.70;14.10;;;27.30;99.90;;;;;;5010433;28;20303;-79
2021/07/20 11:12:35;;;;;;;15.37;13.77;;;27.00;99.90;;;;;;5019766;28;20204;-79
2021/07/20 11:15:04;;;;;;;16.40;14.33;;;26.70;99.90;;;;;;5003455;28;20290;-78
2021/07/20 11:17:34;;;;;;;18.87;15.20;;;26.50;99.90;;;;;;5008404;28;20665;-78
2021/07/20 11:20:05;;;;;;;19.80;16.93;;;26.00;99.90;;;;;;4997460;28;20551;-78
2021/07/20 11:22:35;;;;;;;19.17;16.23;;;25.30;99.90;;;;;;5021206;28;20200;-78
2021/07/20 11:25:02;;;;;;;18.07;16.23;;;25.30;99.90;;;;;;5026920;28;20200;-79
2021/07/20 11:27:30;;;;;;;17.83;15.97;;;25.50;99.90;;;;;;5009852;28;20208;-78
2021/07/20 11:29:58;;;;;;;18.53;16.67;;;25.40;99.90;;;;;;5014320;28;20203;-80
2021/07/20 11:32:30;;;;;;;18.27;16.37;;;25.20;99.90;;;;;;5022791;28;20195;-79
2021/07/20 11:35:02;;;;;;;18.43;16.47;;;25.10;99.90;;;;;;4998490;28;20203;-78
2021/07/20 11:37:34;;;;;;;16.80;14.57;;;25.00;99.90;;;;;;5025297;28;20250;-78
2021/07/20 11:40:08;;;;;;;19.23;15.57;;;25.30;99.90;;;;;;5014516;28;20202;-78
2021/07/20 11:42:48;;;;;;;17.93;15.17;;;25.40;99.90;;;;;;5023029;28;20192;-78
2021/07/20 11:45:15;;;;;;;16.97;15.20;;;25.30;99.90;;;;;;4999269;28;20222;-78
2021/07/20 11:47:50;;;;;;;17.40;15.03;;;25.30;99.90;;;;;;5023682;28;20191;-78
2021/07/20 11:50:28;;;;;;;17.03;15.07;;;25.10;99.90;;;;;;5023130;28;20219;-78
2021/07/20 11:53:02;;;;;;;16.00;14.30;;;25.30;99.90;;;;;;5027054;28;20660;-78
2021/07/20 11:55:37;;;;;;;16.50;14.80;;;25.30;99.90;;;;;;5025944;28;20202;-78
2021/07/20 11:58:45;;;;;;;17.50;14.80;;;25.30;99.90;;;;;;5013217;28;20198;-80
2021/07/20 12:02:03;;;;;;;17.00;14.30;;;25.20;99.90;;;;;;4997589;28;20212;-78
2021/07/20 12:04:47;;;;;;;15.97;14.27;;;24.90;99.90;;;;;;5001512;28;20209;-78
2021/07/20 12:07:23;;;;;;;17.63;14.87;;;25.10;99.90;;;;;;5022772;28;20193;-78
2021/07/20 12:10:09;;;;;;;18.53;15.30;;;25.20;99.90;;;;;;5025291;28;20190;-78
2021/07/20 12:12:48;;;;;;;16.57;14.80;;;25.40;99.90;;;;;;5005696;28;20285;-78
2021/07/20 12:15:16;;;;;;;16.23;14.53;;;25.60;99.90;;;;;;5033183;28;20182;-78
2021/07/20 12:17:44;;;;;;;17.50;15.60;;;25.50;99.90;;;;;;5021791;28;20260;-78
2021/07/20 12:20:13;;;;;;;19.53;15.07;;;25.60;99.90;;;;;;5024345;28;20205;-78
2021/07/20 12:22:41;;;;;;;16.63;14.83;;;25.60;99.90;;;;;;5023747;28;20548;-79
2021/07/20 12:25:09;;;;;;;16.83;14.70;;;25.70;99.90;;;;;;5023229;28;20254;-78
2021/07/20 12:27:37;;;;;;;17.53;15.73;;;25.80;99.90;;;;;;5024514;28;20224;-78
2021/07/20 12:30:07;;;;;;;17.70;15.90;;;25.90;99.90;;;;;;5019396;28;20196;-78
2021/07/20 12:32:34;;;;;;;17.67;15.77;;;25.80;99.90;;;;;;5007619;28;20690;-78
2021/07/20 12:35:02;;;;;;;21.20;16.47;;;25.50;99.90;;;;;;5022043;28;20192;-78
2021/07/20 12:37:29;;;;;;;17.67;15.83;;;25.40;99.90;;;;;;5020887;28;20196;-78
2021/07/20 12:39:57;;;;;;;18.67;16.03;;;25.20;99.90;;;;;;5006780;28;20203;-78
2021/07/20 12:42:32;;;;;;;18.33;16.57;;;25.10;99.90;;;;;;5004855;28;20339;-80
2021/07/20 12:45:08;;;;;;;18.17;16.27;;;25.10;99.90;;;;;;5020899;28;20222;-78
2021/07/20 12:47:40;;;;;;;18.63;16.63;;;25.30;99.90;;;;;;5015612;28;20206;-78
2021/07/20 12:50:08;;;;;;;17.97;16.07;;;25.50;99.90;;;;;;5009686;28;20281;-79
2021/07/20 12:52:36;;;;;;;18.57;16.37;;;25.70;99.90;;;;;;4999740;28;20202;-79
2021/07/20 12:55:08;;;;;;;18.33;15.80;;;25.40;99.90;;;;;;5019412;28;20203;-78
2021/07/20 12:57:35;;;;;;;20.83;17.13;;;25.40;99.90;;;;;;5001105;28;20223;-78